sensor_id;sensor_type;location;lat;lon;timestamp;temperature;humidity
47022;DHT22;32779;52.264;6.154;2022-10-16T00:01:20;12.90;99.90
47022;DHT22;32779;52.264;6.154;2022-10-16T00:03:47;12.80;99.90
47022;DHT22;32779;52.264;6.154;2022-10-16T00:06:13;12.80;99.90
47022;DHT22;32779;52.264;6.154;2022-10-16T00:08:40;12.80;99.90
47022;DHT22;32779;52.264;6.154;2022-10-16T00:13:33;12.70;99.90
47022;DHT22;32779;52.264;6.154;2022-10-16T00:15:59;12.70;99.90
47022;DHT22;32779;52.264;6.154;2022-10-16T00:18:26;12.70;99.90
47022;DHT22;32779;52.264;6.154;2022-10-16T00:20:51;12.70;99.90
47022;DHT22;32779;52.264;6.154;2022-10-16T00:23:17;12.70;99.90
47022;DHT22;32779;52.264;6.154;2022-10-16T00:25:43;12.60;99.90
47022;DHT22;32779;52.264;6.154;2022-10-16T00:28:08;12.70;99.90
47022;DHT22;32779;52.264;6.154;2022-10-16T00:30:38;12.60;99.90
47022;DHT22;32779;52.264;6.154;2022-10-16T00:33:04;12.60;99.90
47022;DHT22;32779;52.264;6.154;2022-10-16T00:35:30;12.60;99.90
47022;DHT22;32779;52.264;6.154;2022-10-16T00:37:56;12.60;99.90
47022;DHT22;32779;52.264;6.154;2022-10-16T00:40:21;12.60;99.90
47022;DHT22;32779;52.264;6.154;2022-10-16T00:42:47;12.50;99.90
47022;DHT22;32779;52.264;6.154;2022-10-16T00:45:12;12.50;99.90
47022;DHT22;32779;52.264;6.154;2022-10-16T00:47:48;12.50;99.90
47022;DHT22;32779;52.264;6.154;2022-10-16T00:50:28;12.50;99.90
47022;DHT22;32779;52.264;6.154;2022-10-16T00:52:56;12.40;99.90
47022;DHT22;32779;52.264;6.154;2022-10-16T00:55:23;12.40;99.90
47022;DHT22;32779;52.264;6.154;2022-10-16T00:57:49;12.40;99.90
47022;DHT22;32779;52.264;6.154;2022-10-16T01:00:21;12.40;99.90
47022;DHT22;32779;52.264;6.154;2022-10-16T01:02:54;12.40;99.90
47022;DHT22;32779;52.264;6.154;2022-10-16T01:05:22;12.40;99.90
47022;DHT22;32779;52.264;6.154;2022-10-16T01:07:58;12.40;99.90
47022;DHT22;32779;52.264;6.154;2022-10-16T01:16:00;12.40;99.90
47022;DHT22;32779;52.264;6.154;2022-10-16T01:18:30;12.40;99.90
47022;DHT22;32779;52.264;6.154;2022-10-16T01:21:02;12.40;99.90
47022;DHT22;32779;52.264;6.154;2022-10-16T01:26:43;12.40;99.90
47022;DHT22;32779;52.264;6.154;2022-10-16T01:29:14;12.40;99.90
47022;DHT22;32779;52.264;6.154;2022-10-16T01:31:49;12.40;99.90
47022;DHT22;32779;52.264;6.154;2022-10-16T01:34:38;12.40;99.90
47022;DHT22;32779;52.264;6.154;2022-10-16T01:37:13;12.40;99.90
47022;DHT22;32779;52.264;6.154;2022-10-16T01:39:42;12.40;99.90
47022;DHT22;32779;52.264;6.154;2022-10-16T01:42:24;12.40;99.90
47022;DHT22;32779;52.264;6.154;2022-10-16T01:44:52;12.40;99.90
47022;DHT22;32779;52.264;6.154;2022-10-16T01:47:22;12.40;99.90
47022;DHT22;32779;52.264;6.154;2022-10-16T01:49:49;12.40;99.90
47022;DHT22;32779;52.264;6.154;2022-10-16T01:52:21;12.40;99.90
47022;DHT22;32779;52.264;6.154;2022-10-16T01:54:50;12.40;99.90
47022;DHT22;32779;52.264;6.154;2022-10-16T01:57:16;12.40;99.90
47022;DHT22;32779;52.264;6.154;2022-10-16T01:59:46;12.30;99.90
47022;DHT22;32779;52.264;6.154;2022-10-16T02:02:13;12.30;99.90
47022;DHT22;32779;52.264;6.154;2022-10-16T02:04:49;12.30;99.90
47022;DHT22;32779;52.264;6.154;2022-10-16T02:07:17;12.40;99.90
47022;DHT22;32779;52.264;6.154;2022-10-16T02:09:43;12.40;99.90
47022;DHT22;32779;52.264;6.154;2022-10-16T02:12:13;12.40;99.90
47022;DHT22;32779;52.264;6.154;2022-10-16T02:14:40;12.40;99.90
47022;DHT22;32779;52.264;6.154;2022-10-16T02:17:11;12.40;99.90
47022;DHT22;32779;52.264;6.154;2022-10-16T02:19:36;12.40;99.90
47022;DHT22;32779;52.264;6.154;2022-10-16T02:22:06;12.40;99.90
47022;DHT22;32779;52.264;6.154;2022-10-16T02:30:34;12.40;99.90
47022;DHT22;32779;52.264;6.154;2022-10-16T02:33:04;12.50;99.90
47022;DHT22;32779;52.264;6.154;2022-10-16T02:35:32;12.50;99.90
47022;DHT22;32779;52.264;6.154;2022-10-16T02:37:57;12.50;99.90
47022;DHT22;32779;52.264;6.154;2022-10-16T02:40:23;12.50;99.90
47022;DHT22;32779;52.264;6.154;2022-10-16T02:42:53;12.50;99.90
47022;DHT22;32779;52.264;6.154;2022-10-16T02:45:19;12.60;99.90
47022;DHT22;32779;52.264;6.154;2022-10-16T02:47:45;12.50;99.90
47022;DHT22;32779;52.264;6.154;2022-10-16T02:50:11;12.60;99.90
47022;DHT22;32779;52.264;6.154;2022-10-16T02:52:36;12.60;99.90
47022;DHT22;32779;52.264;6.154;2022-10-16T02:55:02;12.60;99.90
47022;DHT22;32779;52.264;6.154;2022-10-16T02:57:28;12.60;99.90
47022;DHT22;32779;52.264;6.154;2022-10-16T02:59:54;12.60;99.90
47022;DHT22;32779;52.264;6.154;2022-10-16T03:02:19;12.60;99.90
47022;DHT22;32779;52.264;6.154;2022-10-16T03:04:45;12.60;99.90
47022;DHT22;32779;52.264;6.154;2022-10-16T03:07:11;12.60;99.90
47022;DHT22;32779;52.264;6.154;2022-10-16T03:09:36;12.60;99.90
47022;DHT22;32779;52.264;6.154;2022-10-16T03:12:02;12.60;99.90
47022;DHT22;32779;52.264;6.154;2022-10-16T03:14:27;12.60;99.90
47022;DHT22;32779;52.264;6.154;2022-10-16T03:16:53;12.60;99.90
47022;DHT22;32779;52.264;6.154;2022-10-16T03:19:19;12.60;99.90
47022;DHT22;32779;52.264;6.154;2022-10-16T03:21:45;12.60;99.90
47022;DHT22;32779;52.264;6.154;2022-10-16T03:24:10;12.60;99.90
47022;DHT22;32779;52.264;6.154;2022-10-16T03:26:36;12.70;99.90
47022;DHT22;32779;52.264;6.154;2022-10-16T03:29:02;12.60;99.90
47022;DHT22;32779;52.264;6.154;2022-10-16T03:31:29;12.70;99.90
47022;DHT22;32779;52.264;6.154;2022-10-16T03:33:54;12.70;99.90
47022;DHT22;32779;52.264;6.154;2022-10-16T03:36:20;12.70;99.90
47022;DHT22;32779;52.264;6.154;2022-10-16T03:38:45;12.70;99.90
47022;DHT22;32779;52.264;6.154;2022-10-16T03:41:11;12.70;99.90
47022;DHT22;32779;52.264;6.154;2022-10-16T03:43:36;12.70;99.90
47022;DHT22;32779;52.264;6.154;2022-10-16T03:46:02;12.70;99.90
47022;DHT22;32779;52.264;6.154;2022-10-16T03:48:28;12.70;99.90
47022;DHT22;32779;52.264;6.154;2022-10-16T03:50:54;12.60;99.90
47022;DHT22;32779;52.264;6.154;2022-10-16T03:53:20;12.70;99.90
47022;DHT22;32779;52.264;6.154;2022-10-16T03:55:46;12.60;99.90
47022;DHT22;32779;52.264;6.154;2022-10-16T03:58:12;12.60;99.90
47022;DHT22;32779;52.264;6.154;2022-10-16T04:00:42;12.60;99.90
47022;DHT22;32779;52.264;6.154;2022-10-16T04:03:08;12.60;99.90
47022;DHT22;32779;52.264;6.154;2022-10-16T04:05:34;12.60;99.90
47022;DHT22;32779;52.264;6.154;2022-10-16T04:07:59;12.60;99.90
47022;DHT22;32779;52.264;6.154;2022-10-16T04:10:25;12.60;99.90
47022;DHT22;32779;52.264;6.154;2022-10-16T04:12:51;12.60;99.90
47022;DHT22;32779;52.264;6.154;2022-10-16T04:15:16;12.50;99.90
47022;DHT22;32779;52.264;6.154;2022-10-16T04:17:42;12.60;99.90
47022;DHT22;32779;52.264;6.154;2022-10-16T04:20:08;12.50;99.90
47022;DHT22;32779;52.264;6.154;2022-10-16T04:22:33;12.50;99.90
47022;DHT22;32779;52.264;6.154;2022-10-16T04:24:59;12.60;99.90
47022;DHT22;32779;52.264;6.154;2022-10-16T04:27:25;12.60;99.90
47022;DHT22;32779;52.264;6.154;2022-10-16T04:29:50;12.50;99.90
47022;DHT22;32779;52.264;6.154;2022-10-16T04:32:16;12.60;99.90
47022;DHT22;32779;52.264;6.154;2022-10-16T04:34:42;12.50;99.90
47022;DHT22;32779;52.264;6.154;2022-10-16T04:37:07;12.60;99.90
47022;DHT22;32779;52.264;6.154;2022-10-16T04:39:33;12.50;99.90
47022;DHT22;32779;52.264;6.154;2022-10-16T04:41:59;12.60;99.90
47022;DHT22;32779;52.264;6.154;2022-10-16T04:44:24;12.60;99.90
47022;DHT22;32779;52.264;6.154;2022-10-16T04:46:50;12.50;99.90
47022;DHT22;32779;52.264;6.154;2022-10-16T04:49:16;12.50;99.90
47022;DHT22;32779;52.264;6.154;2022-10-16T04:51:42;12.50;99.90
47022;DHT22;32779;52.264;6.154;2022-10-16T04:54:08;12.50;99.90
47022;DHT22;32779;52.264;6.154;2022-10-16T04:56:35;12.40;99.90
47022;DHT22;32779;52.264;6.154;2022-10-16T04:59:08;12.40;99.90
47022;DHT22;32779;52.264;6.154;2022-10-16T05:01:33;12.30;99.90
47022;DHT22;32779;52.264;6.154;2022-10-16T05:03:59;12.30;99.90
47022;DHT22;32779;52.264;6.154;2022-10-16T05:06:24;12.30;99.90
47022;DHT22;32779;52.264;6.154;2022-10-16T05:08:50;12.30;99.90
47022;DHT22;32779;52.264;6.154;2022-10-16T05:11:15;12.30;99.90
47022;DHT22;32779;52.264;6.154;2022-10-16T05:13:41;12.30;99.90
47022;DHT22;32779;52.264;6.154;2022-10-16T05:16:07;12.20;99.90
47022;DHT22;32779;52.264;6.154;2022-10-16T05:18:32;12.30;99.90
47022;DHT22;32779;52.264;6.154;2022-10-16T05:20:58;12.20;99.90
47022;DHT22;32779;52.264;6.154;2022-10-16T05:23:23;12.20;99.90
47022;DHT22;32779;52.264;6.154;2022-10-16T05:25:53;12.20;99.90
47022;DHT22;32779;52.264;6.154;2022-10-16T05:28:19;12.20;99.90
47022;DHT22;32779;52.264;6.154;2022-10-16T05:30:45;12.10;99.90
47022;DHT22;32779;52.264;6.154;2022-10-16T05:33:11;12.20;99.90
47022;DHT22;32779;52.264;6.154;2022-10-16T05:35:36;12.20;99.90
47022;DHT22;32779;52.264;6.154;2022-10-16T05:38:02;12.20;99.90
47022;DHT22;32779;52.264;6.154;2022-10-16T05:40:27;12.20;99.90
47022;DHT22;32779;52.264;6.154;2022-10-16T05:42:56;12.20;99.90
47022;DHT22;32779;52.264;6.154;2022-10-16T05:45:22;12.20;99.90
47022;DHT22;32779;52.264;6.154;2022-10-16T05:47:47;12.20;99.90
47022;DHT22;32779;52.264;6.154;2022-10-16T05:50:13;12.20;99.90
47022;DHT22;32779;52.264;6.154;2022-10-16T05:52:38;12.20;99.90
47022;DHT22;32779;52.264;6.154;2022-10-16T05:55:04;12.20;99.90
47022;DHT22;32779;52.264;6.154;2022-10-16T05:57:30;12.30;99.90
47022;DHT22;32779;52.264;6.154;2022-10-16T05:59:56;12.20;99.90
47022;DHT22;32779;52.264;6.154;2022-10-16T06:02:22;12.30;99.90
47022;DHT22;32779;52.264;6.154;2022-10-16T06:04:47;12.20;99.90
47022;DHT22;32779;52.264;6.154;2022-10-16T06:07:13;12.20;99.90
47022;DHT22;32779;52.264;6.154;2022-10-16T06:09:38;12.20;99.90
47022;DHT22;32779;52.264;6.154;2022-10-16T06:12:04;12.30;99.90
47022;DHT22;32779;52.264;6.154;2022-10-16T06:14:30;12.30;99.90
47022;DHT22;32779;52.264;6.154;2022-10-16T06:16:55;12.20;99.90
47022;DHT22;32779;52.264;6.154;2022-10-16T06:19:21;12.20;99.90
47022;DHT22;32779;52.264;6.154;2022-10-16T06:21:48;12.20;99.90
47022;DHT22;32779;52.264;6.154;2022-10-16T06:24:13;12.20;99.90
47022;DHT22;32779;52.264;6.154;2022-10-16T06:26:39;12.20;99.90
47022;DHT22;32779;52.264;6.154;2022-10-16T06:29:05;12.20;99.90
47022;DHT22;32779;52.264;6.154;2022-10-16T06:31:31;12.20;99.90
47022;DHT22;32779;52.264;6.154;2022-10-16T06:33:59;12.20;99.90
47022;DHT22;32779;52.264;6.154;2022-10-16T06:36:25;12.20;99.90
47022;DHT22;32779;52.264;6.154;2022-10-16T06:38:51;12.30;99.90
47022;DHT22;32779;52.264;6.154;2022-10-16T06:41:18;12.30;99.90
47022;DHT22;32779;52.264;6.154;2022-10-16T06:43:45;12.40;99.90
47022;DHT22;32779;52.264;6.154;2022-10-16T06:46:12;12.40;99.90
47022;DHT22;32779;52.264;6.154;2022-10-16T06:48:38;12.50;99.90
47022;DHT22;32779;52.264;6.154;2022-10-16T06:51:07;12.60;99.90
47022;DHT22;32779;52.264;6.154;2022-10-16T06:53:35;12.60;99.90
47022;DHT22;32779;52.264;6.154;2022-10-16T06:56:08;12.60;99.90
47022;DHT22;32779;52.264;6.154;2022-10-16T06:58:34;12.70;99.90
47022;DHT22;32779;52.264;6.154;2022-10-16T07:01:00;12.70;99.90
47022;DHT22;32779;52.264;6.154;2022-10-16T07:03:25;12.70;99.90
47022;DHT22;32779;52.264;6.154;2022-10-16T07:05:51;12.80;99.90
47022;DHT22;32779;52.264;6.154;2022-10-16T07:08:16;12.80;99.90
47022;DHT22;32779;52.264;6.154;2022-10-16T07:10:42;12.80;99.90
47022;DHT22;32779;52.264;6.154;2022-10-16T07:13:07;12.80;99.90
47022;DHT22;32779;52.264;6.154;2022-10-16T07:15:34;12.90;99.90
47022;DHT22;32779;52.264;6.154;2022-10-16T07:18:00;12.90;99.90
47022;DHT22;32779;52.264;6.154;2022-10-16T07:20:25;13.00;99.90
47022;DHT22;32779;52.264;6.154;2022-10-16T07:22:51;13.00;99.90
47022;DHT22;32779;52.264;6.154;2022-10-16T07:25:17;13.10;99.90
47022;DHT22;32779;52.264;6.154;2022-10-16T07:27:42;13.20;99.90
47022;DHT22;32779;52.264;6.154;2022-10-16T07:30:08;13.20;99.90
47022;DHT22;32779;52.264;6.154;2022-10-16T07:32:34;13.30;99.90
47022;DHT22;32779;52.264;6.154;2022-10-16T07:35:00;13.40;99.90
47022;DHT22;32779;52.264;6.154;2022-10-16T07:37:25;13.40;99.90
47022;DHT22;32779;52.264;6.154;2022-10-16T07:39:51;13.40;99.90
47022;DHT22;32779;52.264;6.154;2022-10-16T07:42:17;13.40;99.90
47022;DHT22;32779;52.264;6.154;2022-10-16T07:44:42;13.40;99.90
47022;DHT22;32779;52.264;6.154;2022-10-16T07:47:08;13.50;99.90
47022;DHT22;32779;52.264;6.154;2022-10-16T07:49:34;13.50;99.90
47022;DHT22;32779;52.264;6.154;2022-10-16T07:51:59;13.50;99.90
47022;DHT22;32779;52.264;6.154;2022-10-16T07:54:25;13.50;99.90
47022;DHT22;32779;52.264;6.154;2022-10-16T07:56:50;13.60;99.90
47022;DHT22;32779;52.264;6.154;2022-10-16T07:59:16;13.60;99.90
47022;DHT22;32779;52.264;6.154;2022-10-16T08:01:42;13.60;99.90
47022;DHT22;32779;52.264;6.154;2022-10-16T08:04:08;13.60;99.90
47022;DHT22;32779;52.264;6.154;2022-10-16T08:06:39;13.60;99.90
47022;DHT22;32779;52.264;6.154;2022-10-16T08:09:07;13.50;99.90
47022;DHT22;32779;52.264;6.154;2022-10-16T08:11:33;13.60;99.90
47022;DHT22;32779;52.264;6.154;2022-10-16T08:13:59;13.60;99.90
47022;DHT22;32779;52.264;6.154;2022-10-16T08:16:24;13.60;99.90
47022;DHT22;32779;52.264;6.154;2022-10-16T08:18:50;13.60;99.90
47022;DHT22;32779;52.264;6.154;2022-10-16T08:21:19;13.70;99.90
47022;DHT22;32779;52.264;6.154;2022-10-16T08:23:44;13.70;99.90
47022;DHT22;32779;52.264;6.154;2022-10-16T08:26:10;13.80;99.90
47022;DHT22;32779;52.264;6.154;2022-10-16T08:28:36;13.90;99.90
47022;DHT22;32779;52.264;6.154;2022-10-16T08:31:28;13.90;99.90
47022;DHT22;32779;52.264;6.154;2022-10-16T08:33:54;14.00;99.90
47022;DHT22;32779;52.264;6.154;2022-10-16T08:36:19;14.10;99.90
47022;DHT22;32779;52.264;6.154;2022-10-16T08:38:47;14.10;99.90
47022;DHT22;32779;52.264;6.154;2022-10-16T08:46:36;14.20;99.90
47022;DHT22;32779;52.264;6.154;2022-10-16T08:49:03;14.20;99.90
47022;DHT22;32779;52.264;6.154;2022-10-16T08:51:35;14.30;99.90
47022;DHT22;32779;52.264;6.154;2022-10-16T08:54:54;14.40;99.90
47022;DHT22;32779;52.264;6.154;2022-10-16T08:57:14;14.50;99.90
47022;DHT22;32779;52.264;6.154;2022-10-16T08:59:41;14.60;99.90
47022;DHT22;32779;52.264;6.154;2022-10-16T09:02:29;14.60;99.90
47022;DHT22;32779;52.264;6.154;2022-10-16T09:05:24;14.70;99.90
47022;DHT22;32779;52.264;6.154;2022-10-16T09:08:16;14.70;99.90
47022;DHT22;32779;52.264;6.154;2022-10-16T09:11:41;14.70;99.90
47022;DHT22;32779;52.264;6.154;2022-10-16T09:17:36;14.70;99.90
47022;DHT22;32779;52.264;6.154;2022-10-16T09:22:47;14.70;99.90
47022;DHT22;32779;52.264;6.154;2022-10-16T09:25:18;14.80;99.90
47022;DHT22;32779;52.264;6.154;2022-10-16T09:27:47;14.80;99.90
47022;DHT22;32779;52.264;6.154;2022-10-16T09:30:18;14.80;99.90
47022;DHT22;32779;52.264;6.154;2022-10-16T09:32:47;14.90;99.90
47022;DHT22;32779;52.264;6.154;2022-10-16T09:35:19;15.00;99.90
47022;DHT22;32779;52.264;6.154;2022-10-16T09:37:49;15.00;99.90
47022;DHT22;32779;52.264;6.154;2022-10-16T09:40:33;15.10;99.90
47022;DHT22;32779;52.264;6.154;2022-10-16T09:43:25;15.10;99.90
47022;DHT22;32779;52.264;6.154;2022-10-16T09:46:02;15.10;99.90
47022;DHT22;32779;52.264;6.154;2022-10-16T09:48:46;15.10;99.90
47022;DHT22;32779;52.264;6.154;2022-10-16T09:51:36;15.10;99.90
47022;DHT22;32779;52.264;6.154;2022-10-16T09:54:16;15.20;99.90
47022;DHT22;32779;52.264;6.154;2022-10-16T09:56:42;15.30;99.90
47022;DHT22;32779;52.264;6.154;2022-10-16T09:59:19;15.40;99.90
47022;DHT22;32779;52.264;6.154;2022-10-16T10:01:50;15.50;99.90
47022;DHT22;32779;52.264;6.154;2022-10-16T10:04:20;15.50;99.90
47022;DHT22;32779;52.264;6.154;2022-10-16T10:06:46;15.60;99.90
47022;DHT22;32779;52.264;6.154;2022-10-16T10:09:40;15.70;99.90
47022;DHT22;32779;52.264;6.154;2022-10-16T10:12:27;15.70;99.90
47022;DHT22;32779;52.264;6.154;2022-10-16T10:14:56;15.80;99.90
47022;DHT22;32779;52.264;6.154;2022-10-16T10:17:27;15.90;99.90
47022;DHT22;32779;52.264;6.154;2022-10-16T10:19:55;16.00;99.90
47022;DHT22;32779;52.264;6.154;2022-10-16T10:24:56;16.00;99.90
47022;DHT22;32779;52.264;6.154;2022-10-16T10:27:30;16.00;99.90
47022;DHT22;32779;52.264;6.154;2022-10-16T10:32:45;16.00;99.90
47022;DHT22;32779;52.264;6.154;2022-10-16T10:35:29;16.10;99.90
47022;DHT22;32779;52.264;6.154;2022-10-16T10:46:31;16.30;99.90
47022;DHT22;32779;52.264;6.154;2022-10-16T10:54:55;16.40;99.90
47022;DHT22;32779;52.264;6.154;2022-10-16T10:57:30;16.50;99.90
47022;DHT22;32779;52.264;6.154;2022-10-16T11:05:49;16.50;99.90
47022;DHT22;32779;52.264;6.154;2022-10-16T11:08:19;16.40;99.90
47022;DHT22;32779;52.264;6.154;2022-10-16T11:15:57;16.20;99.90
47022;DHT22;32779;52.264;6.154;2022-10-16T11:21:07;16.20;99.90
47022;DHT22;32779;52.264;6.154;2022-10-16T11:26:18;16.20;99.90
47022;DHT22;32779;52.264;6.154;2022-10-16T11:28:53;16.20;99.90
47022;DHT22;32779;52.264;6.154;2022-10-16T11:34:41;16.30;99.90
47022;DHT22;32779;52.264;6.154;2022-10-16T11:37:14;16.40;99.90
47022;DHT22;32779;52.264;6.154;2022-10-16T11:39:45;16.50;99.90
47022;DHT22;32779;52.264;6.154;2022-10-16T11:42:30;16.50;99.90
47022;DHT22;32779;52.264;6.154;2022-10-16T11:47:40;16.50;99.90
47022;DHT22;32779;52.264;6.154;2022-10-16T11:50:25;16.60;99.90
47022;DHT22;32779;52.264;6.154;2022-10-16T11:55:43;16.60;99.90
47022;DHT22;32779;52.264;6.154;2022-10-16T12:03:56;16.60;99.90
47022;DHT22;32779;52.264;6.154;2022-10-16T12:06:36;16.60;99.90
47022;DHT22;32779;52.264;6.154;2022-10-16T12:09:03;16.60;99.90
47022;DHT22;32779;52.264;6.154;2022-10-16T12:16:55;16.70;99.90
47022;DHT22;32779;52.264;6.154;2022-10-16T12:19:23;16.70;99.90
47022;DHT22;32779;52.264;6.154;2022-10-16T12:21:51;16.70;99.90
47022;DHT22;32779;52.264;6.154;2022-10-16T12:24:43;16.70;99.90
47022;DHT22;32779;52.264;6.154;2022-10-16T12:27:30;16.70;99.90
47022;DHT22;32779;52.264;6.154;2022-10-16T12:30:06;16.70;99.90
47022;DHT22;32779;52.264;6.154;2022-10-16T12:32:37;16.70;99.90
47022;DHT22;32779;52.264;6.154;2022-10-16T12:35:06;16.80;99.90
47022;DHT22;32779;52.264;6.154;2022-10-16T12:37:34;16.90;99.90
47022;DHT22;32779;52.264;6.154;2022-10-16T12:42:47;16.90;99.90
47022;DHT22;32779;52.264;6.154;2022-10-16T12:45:34;16.90;99.90
47022;DHT22;32779;52.264;6.154;2022-10-16T12:48:01;16.90;99.90
47022;DHT22;32779;52.264;6.154;2022-10-16T12:50:33;16.90;99.90
47022;DHT22;32779;52.264;6.154;2022-10-16T12:53:00;16.90;99.90
47022;DHT22;32779;52.264;6.154;2022-10-16T12:55:27;16.80;99.90
47022;DHT22;32779;52.264;6.154;2022-10-16T13:00:56;16.70;99.90
47022;DHT22;32779;52.264;6.154;2022-10-16T13:03:48;16.60;99.90
47022;DHT22;32779;52.264;6.154;2022-10-16T13:06:44;16.60;99.90
47022;DHT22;32779;52.264;6.154;2022-10-16T13:12:21;16.50;99.90
47022;DHT22;32779;52.264;6.154;2022-10-16T13:20:46;16.50;99.90
47022;DHT22;32779;52.264;6.154;2022-10-16T13:23:21;16.50;99.90
47022;DHT22;32779;52.264;6.154;2022-10-16T13:28:28;16.50;99.90
47022;DHT22;32779;52.264;6.154;2022-10-16T13:30:57;16.60;99.90
47022;DHT22;32779;52.264;6.154;2022-10-16T13:33:35;16.60;99.90
47022;DHT22;32779;52.264;6.154;2022-10-16T13:36:06;16.70;99.90
47022;DHT22;32779;52.264;6.154;2022-10-16T13:38:35;16.70;99.90
47022;DHT22;32779;52.264;6.154;2022-10-16T13:41:05;16.70;99.90
47022;DHT22;32779;52.264;6.154;2022-10-16T13:43:52;16.70;99.90
47022;DHT22;32779;52.264;6.154;2022-10-16T13:46:20;16.70;99.90
47022;DHT22;32779;52.264;6.154;2022-10-16T13:49:14;16.70;99.90
47022;DHT22;32779;52.264;6.154;2022-10-16T13:51:40;16.60;99.90
47022;DHT22;32779;52.264;6.154;2022-10-16T13:54:05;16.70;99.90
47022;DHT22;32779;52.264;6.154;2022-10-16T13:56:33;16.60;99.90
47022;DHT22;32779;52.264;6.154;2022-10-16T13:59:03;16.60;99.90
47022;DHT22;32779;52.264;6.154;2022-10-16T14:01:32;16.60;99.90
47022;DHT22;32779;52.264;6.154;2022-10-16T14:04:04;16.60;99.90
47022;DHT22;32779;52.264;6.154;2022-10-16T14:06:31;16.70;99.90
47022;DHT22;32779;52.264;6.154;2022-10-16T14:09:08;16.70;99.90
47022;DHT22;32779;52.264;6.154;2022-10-16T14:11:44;16.60;99.90
47022;DHT22;32779;52.264;6.154;2022-10-16T14:14:12;16.60;99.90
47022;DHT22;32779;52.264;6.154;2022-10-16T14:16:41;16.60;99.90
47022;DHT22;32779;52.264;6.154;2022-10-16T14:21:41;16.60;99.90
47022;DHT22;32779;52.264;6.154;2022-10-16T14:24:13;16.70;99.90
47022;DHT22;32779;52.264;6.154;2022-10-16T14:26:45;16.60;99.90
47022;DHT22;32779;52.264;6.154;2022-10-16T14:29:18;16.70;99.90
47022;DHT22;32779;52.264;6.154;2022-10-16T14:32:05;16.70;99.90
47022;DHT22;32779;52.264;6.154;2022-10-16T14:37:15;16.80;99.90
47022;DHT22;32779;52.264;6.154;2022-10-16T14:39:49;16.70;99.90
47022;DHT22;32779;52.264;6.154;2022-10-16T14:42:16;16.80;99.90
47022;DHT22;32779;52.264;6.154;2022-10-16T14:44:44;16.80;99.90
47022;DHT22;32779;52.264;6.154;2022-10-16T14:47:12;16.70;99.90
47022;DHT22;32779;52.264;6.154;2022-10-16T14:49:38;16.70;99.90
47022;DHT22;32779;52.264;6.154;2022-10-16T14:52:11;16.70;99.90
47022;DHT22;32779;52.264;6.154;2022-10-16T14:54:37;16.70;99.90
47022;DHT22;32779;52.264;6.154;2022-10-16T14:57:02;16.70;99.90
47022;DHT22;32779;52.264;6.154;2022-10-16T14:59:36;16.70;99.90
47022;DHT22;32779;52.264;6.154;2022-10-16T15:02:32;16.60;99.90
47022;DHT22;32779;52.264;6.154;2022-10-16T15:05:21;16.60;99.90
47022;DHT22;32779;52.264;6.154;2022-10-16T15:07:49;16.60;99.90
47022;DHT22;32779;52.264;6.154;2022-10-16T15:10:15;16.50;99.90
47022;DHT22;32779;52.264;6.154;2022-10-16T15:12:40;16.50;99.90
47022;DHT22;32779;52.264;6.154;2022-10-16T15:15:26;16.40;99.90
47022;DHT22;32779;52.264;6.154;2022-10-16T15:17:54;16.40;99.90
47022;DHT22;32779;52.264;6.154;2022-10-16T15:20:31;16.30;99.90
47022;DHT22;32779;52.264;6.154;2022-10-16T15:23:00;16.30;99.90
47022;DHT22;32779;52.264;6.154;2022-10-16T15:25:37;16.20;99.90
47022;DHT22;32779;52.264;6.154;2022-10-16T15:28:05;16.10;99.90
47022;DHT22;32779;52.264;6.154;2022-10-16T15:30:30;16.10;99.90
47022;DHT22;32779;52.264;6.154;2022-10-16T15:32:56;16.00;99.90
47022;DHT22;32779;52.264;6.154;2022-10-16T15:35:22;16.00;99.90
47022;DHT22;32779;52.264;6.154;2022-10-16T15:37:48;15.90;99.90
47022;DHT22;32779;52.264;6.154;2022-10-16T15:40:14;15.90;99.90
47022;DHT22;32779;52.264;6.154;2022-10-16T15:42:40;15.90;99.90
47022;DHT22;32779;52.264;6.154;2022-10-16T15:45:05;15.80;99.90
47022;DHT22;32779;52.264;6.154;2022-10-16T15:47:32;15.80;99.90
47022;DHT22;32779;52.264;6.154;2022-10-16T15:49:58;15.70;99.90
47022;DHT22;32779;52.264;6.154;2022-10-16T15:52:23;15.60;99.90
47022;DHT22;32779;52.264;6.154;2022-10-16T15:54:49;15.60;99.90
47022;DHT22;32779;52.264;6.154;2022-10-16T15:57:14;15.60;99.90
47022;DHT22;32779;52.264;6.154;2022-10-16T15:59:40;15.50;99.90
47022;DHT22;32779;52.264;6.154;2022-10-16T16:02:05;15.40;99.90
47022;DHT22;32779;52.264;6.154;2022-10-16T16:04:31;15.30;99.90
47022;DHT22;32779;52.264;6.154;2022-10-16T16:06:57;15.30;99.90
47022;DHT22;32779;52.264;6.154;2022-10-16T16:09:22;15.10;99.90
47022;DHT22;32779;52.264;6.154;2022-10-16T16:11:48;15.10;99.90
47022;DHT22;32779;52.264;6.154;2022-10-16T16:14:15;15.00;99.90
47022;DHT22;32779;52.264;6.154;2022-10-16T16:16:41;14.90;99.90
47022;DHT22;32779;52.264;6.154;2022-10-16T16:19:07;14.80;99.90
47022;DHT22;32779;52.264;6.154;2022-10-16T16:21:34;14.80;99.90
47022;DHT22;32779;52.264;6.154;2022-10-16T16:23:59;14.70;99.90
47022;DHT22;32779;52.264;6.154;2022-10-16T16:26:27;14.60;99.90
47022;DHT22;32779;52.264;6.154;2022-10-16T16:28:56;14.60;99.90
47022;DHT22;32779;52.264;6.154;2022-10-16T16:31:26;14.50;99.90
47022;DHT22;32779;52.264;6.154;2022-10-16T16:33:52;14.50;99.90
47022;DHT22;32779;52.264;6.154;2022-10-16T16:36:18;14.40;99.90
47022;DHT22;32779;52.264;6.154;2022-10-16T16:38:44;14.40;99.90
47022;DHT22;32779;52.264;6.154;2022-10-16T16:41:18;14.30;99.90
47022;DHT22;32779;52.264;6.154;2022-10-16T16:43:45;14.30;99.90
47022;DHT22;32779;52.264;6.154;2022-10-16T16:46:11;14.30;99.90
47022;DHT22;32779;52.264;6.154;2022-10-16T16:48:37;14.20;99.90
47022;DHT22;32779;52.264;6.154;2022-10-16T16:51:11;14.20;99.90
47022;DHT22;32779;52.264;6.154;2022-10-16T16:53:46;14.10;99.90
47022;DHT22;32779;52.264;6.154;2022-10-16T16:56:12;14.10;99.90
47022;DHT22;32779;52.264;6.154;2022-10-16T16:58:38;14.10;99.90
47022;DHT22;32779;52.264;6.154;2022-10-16T17:01:04;14.10;99.90
47022;DHT22;32779;52.264;6.154;2022-10-16T17:03:32;14.00;99.90
47022;DHT22;32779;52.264;6.154;2022-10-16T17:06:07;14.00;99.90
47022;DHT22;32779;52.264;6.154;2022-10-16T17:08:37;14.00;99.90
47022;DHT22;32779;52.264;6.154;2022-10-16T17:11:03;13.90;99.90
47022;DHT22;32779;52.264;6.154;2022-10-16T17:13:33;13.90;99.90
47022;DHT22;32779;52.264;6.154;2022-10-16T17:16:03;13.80;99.90
47022;DHT22;32779;52.264;6.154;2022-10-16T17:18:29;13.80;99.90
47022;DHT22;32779;52.264;6.154;2022-10-16T17:20:59;13.80;99.90
47022;DHT22;32779;52.264;6.154;2022-10-16T17:23:25;13.70;99.90
47022;DHT22;32779;52.264;6.154;2022-10-16T17:25:51;13.70;99.90
47022;DHT22;32779;52.264;6.154;2022-10-16T17:28:16;13.70;99.90
47022;DHT22;32779;52.264;6.154;2022-10-16T17:30:43;13.60;99.90